Time;durP1;ratioP1;P1;durP2;ratioP2;P2;SDS_P1;SDS_P2;PMS_P1;PMS_P2;Temp;Humidity;BMP_temperature;BMP_pressure;BME280_temperature;BME280_humidity;BME280_pressure;Samples;Min_cycle;Max_cycle;Signal;HPM_P1;HPM_P2
2022/07/16 00:03:04;;;;;;;1.65;0.80;;;;;;;14.82;100.00;99694.93;1727217;81;21595;-55
2022/07/16 00:05:31;;;;;;;0.90;0.70;;;;;;;14.73;100.00;99690.98;1728866;80;21129;-55
2022/07/16 00:07:57;;;;;;;1.77;0.60;;;;;;;14.66;100.00;99685.59;1735366;80;21057;-55
2022/07/16 00:10:24;;;;;;;2.83;0.50;;;;;;;14.59;100.00;99688.33;1731020;81;21720;-55
2022/07/16 00:12:51;;;;;;;2.58;0.60;;;;;;;14.51;100.00;99689.32;1728534;80;21065;-55
2022/07/16 00:15:17;;;;;;;1.42;0.60;;;;;;;14.45;100.00;99692.92;1726585;80;21058;-55
2022/07/16 00:17:45;;;;;;;1.62;0.50;;;;;;;14.39;100.00;99698.23;1731766;80;21379;-55
2022/07/16 00:20:12;;;;;;;0.78;0.53;;;;;;;14.35;100.00;99697.54;1729230;80;21034;-55
2022/07/16 00:22:39;;;;;;;2.75;0.70;;;;;;;14.32;100.00;99696.86;1667001;84;21163;-55
2022/07/16 00:25:07;;;;;;;4.87;0.60;;;;;;;14.31;100.00;99701.88;1667492;83;21061;-55
2022/07/16 00:27:34;;;;;;;5.00;0.60;;;;;;;14.30;100.00;99704.20;1729177;80;21061;-55
2022/07/16 00:30:00;;;;;;;1.10;0.60;;;;;;;14.29;100.00;99699.27;1729865;80;21081;-55
2022/07/16 00:32:27;;;;;;;3.05;0.70;;;;;;;14.26;100.00;99700.84;1727318;80;21076;-55
2022/07/16 00:34:53;;;;;;;1.55;0.70;;;;;;;14.23;100.00;99702.38;1730797;80;21113;-55
2022/07/16 00:37:20;;;;;;;1.67;0.60;;;;;;;14.19;100.00;99697.27;1728297;80;21082;-55
2022/07/16 00:39:46;;;;;;;3.77;0.60;;;;;;;14.13;100.00;99694.45;1728472;80;21500;-55
2022/07/16 00:42:13;;;;;;;1.10;0.57;;;;;;;14.09;100.00;99694.27;1725671;80;21046;-55
2022/07/16 00:44:40;;;;;;;1.80;0.57;;;;;;;14.06;100.00;99690.88;1727995;80;21081;-55
2022/07/16 00:47:07;;;;;;;6.65;0.60;;;;;;;14.04;100.00;99692.33;1661384;84;21472;-55
2022/07/16 00:49:34;;;;;;;1.98;0.70;;;;;;;14.03;100.00;99695.52;1709936;82;21294;-55
2022/07/16 00:52:00;;;;;;;1.12;0.47;;;;;;;14.01;100.00;99695.25;1707842;82;21172;-55
2022/07/16 00:54:27;;;;;;;3.02;0.60;;;;;;;13.94;100.00;99693.90;1707589;82;21412;-55
2022/07/16 00:56:55;;;;;;;1.65;0.50;;;;;;;13.90;100.00;99693.20;1707000;82;21220;-55
2022/07/16 00:59:21;;;;;;;1.77;0.70;;;;;;;13.86;100.00;99697.56;1706973;82;21257;-55
2022/07/16 01:01:48;;;;;;;3.70;0.63;;;;;;;13.79;100.00;99697.05;1706540;82;21028;-54
2022/07/16 01:04:15;;;;;;;3.98;0.70;;;;;;;13.72;100.00;99702.95;1703906;82;21078;-54
2022/07/16 01:06:41;;;;;;;3.42;0.50;;;;;;;13.64;100.00;99696.66;1687767;82;21070;-54
2022/07/16 01:09:09;;;;;;;1.55;0.50;;;;;;;13.58;100.00;99695.22;1701413;82;21060;-54
2022/07/16 01:11:36;;;;;;;3.02;0.60;;;;;;;13.53;100.00;99701.37;1657389;82;21153;-55
2022/07/16 01:14:02;;;;;;;0.98;0.57;;;;;;;13.47;100.00;99691.41;1706191;82;22444;-54
2022/07/16 01:16:30;;;;;;;2.37;0.50;;;;;;;13.45;100.00;99691.50;1704253;82;21073;-54
2022/07/16 01:18:57;;;;;;;2.90;0.60;;;;;;;13.45;100.00;99693.33;1706048;82;21111;-55
2022/07/16 01:21:24;;;;;;;0.57;0.50;;;;;;;13.45;100.00;99703.67;1711617;82;21054;-55
2022/07/16 01:23:51;;;;;;;2.92;0.50;;;;;;;13.45;100.00;99694.20;1702374;82;21594;-55
2022/07/16 01:26:17;;;;;;;3.15;0.50;;;;;;;13.45;100.00;99696.03;1706004;82;21029;-54
2022/07/16 01:28:45;;;;;;;1.00;0.60;;;;;;;13.45;100.00;99696.91;1709195;82;21076;-54
2022/07/16 01:31:12;;;;;;;6.58;0.60;;;;;;;13.43;100.00;99699.34;1704612;82;21511;-54
2022/07/16 01:33:40;;;;;;;1.87;0.60;;;;;;;13.40;100.00;99696.81;1708243;81;21370;-54
2022/07/16 01:36:11;;;;;;;1.10;0.65;;;;;;;13.37;100.00;99705.97;1703822;82;21600;-54
2022/07/16 01:38:42;;;;;;;1.82;0.50;;;;;;;13.31;100.00;99714.45;1706287;81;21071;-54
2022/07/16 01:41:10;;;;;;;3.58;0.50;;;;;;;13.31;100.00;99714.45;1705655;82;21041;-54
2022/07/16 01:43:36;;;;;;;0.78;0.42;;;;;;;13.23;100.00;99713.56;1706289;82;21426;-54
2022/07/16 01:46:03;;;;;;;0.72;0.42;;;;;;;13.23;100.00;99713.56;1710826;80;21054;-54
2022/07/16 01:48:32;;;;;;;1.62;0.40;;;;;;;13.22;100.00;99713.65;1725428;81;21147;-54
2022/07/16 01:50:59;;;;;;;1.65;0.42;;;;;;;13.20;100.00;99713.73;1665061;84;21106;-54
2022/07/16 01:53:28;;;;;;;0.50;0.42;;;;;;;13.20;100.00;99713.73;1725410;81;21050;-54
2022/07/16 01:55:55;;;;;;;2.17;0.50;;;;;;;13.20;100.00;99710.16;1724728;81;21395;-54
2022/07/16 01:58:21;;;;;;;0.70;0.65;;;;;;;13.19;100.00;99705.23;1731299;81;20997;-53
2022/07/16 02:00:48;;;;;;;0.50;0.47;;;;;;;13.22;100.00;99707.77;1727067;81;21179;-52
2022/07/16 02:03:14;;;;;;;2.25;0.60;;;;;;;13.22;100.00;99707.77;1730475;81;20974;-51
2022/07/16 02:05:41;;;;;;;0.93;0.50;;;;;;;13.15;100.00;99700.99;1725777;81;22169;-52
2022/07/16 02:08:07;;;;;;;0.88;0.50;;;;;;;13.12;100.00;99709.72;1729225;81;20867;-51
2022/07/16 02:10:35;;;;;;;3.27;0.40;;;;;;;13.10;100.00;99705.74;1727439;81;20986;-51
2022/07/16 02:13:02;;;;;;;1.37;0.50;;;;;;;13.10;100.00;99705.74;1727217;81;21113;-53
2022/07/16 02:15:29;;;;;;;1.70;0.40;;;;;;;13.07;100.00;99711.35;1728960;81;20972;-52
2022/07/16 02:17:56;;;;;;;0.50;0.50;;;;;;;13.02;100.00;99712.56;1728511;81;21402;-52
2022/07/16 02:20:23;;;;;;;1.10;0.50;;;;;;;12.99;100.00;99714.11;1723747;81;21513;-54
2022/07/16 02:22:50;;;;;;;1.77;0.40;;;;;;;12.97;100.00;99715.55;1727831;81;20955;-52
2022/07/16 02:25:16;;;;;;;1.92;0.88;;;;;;;12.98;100.00;99715.08;1703209;81;21152;-52
2022/07/16 02:30:29;;;;;;;3.50;0.60;;;;;;;12.99;100.00;99718.17;1728839;81;28033;-54
2022/07/16 02:32:55;;;;;;;3.10;0.60;;;;;;;13.00;100.00;99714.51;1728593;81;21559;-53
2022/07/16 02:35:22;;;;;;;0.65;0.60;;;;;;;13.00;100.00;99715.38;1728948;81;21033;-52
2022/07/16 02:37:48;;;;;;;2.60;0.50;;;;;;;13.01;100.00;99723.88;1727803;81;22281;-54
2022/07/16 02:40:15;;;;;;;0.40;0.30;;;;;;;13.00;100.00;99723.97;1721010;81;21080;-50
2022/07/16 02:42:41;;;;;;;1.65;0.40;;;;;;;12.97;100.00;99728.19;1726654;81;21045;-53
2022/07/16 02:45:10;;;;;;;3.62;0.45;;;;;;;12.88;100.00;99721.01;1726227;81;21050;-52
2022/07/16 02:47:38;;;;;;;1.10;0.40;;;;;;;12.84;100.00;99728.89;1727057;81;21120;-55
2022/07/16 02:50:06;;;;;;;0.40;0.40;;;;;;;12.84;100.00;99728.89;1730402;80;21207;-51
2022/07/16 02:52:32;;;;;;;3.20;0.50;;;;;;;12.82;100.00;99719.15;1730974;80;21132;-52
2022/07/16 02:54:59;;;;;;;1.20;0.42;;;;;;;12.82;100.00;99719.15;1730361;80;21152;-52
2022/07/16 02:57:25;;;;;;;0.88;0.50;;;;;;;12.87;100.00;99720.61;1731844;80;22087;-51
2022/07/16 02:59:51;;;;;;;0.62;0.50;;;;;;;12.91;100.00;99723.15;1727570;80;21109;-53
2022/07/16 03:02:18;;;;;;;0.55;0.33;;;;;;;12.96;100.00;99716.50;1661223;83;21281;-53
2022/07/16 03:04:44;;;;;;;4.22;0.40;;;;;;;13.02;100.00;99716.14;1663167;83;21127;-52
2022/07/16 03:07:10;;;;;;;3.58;0.40;;;;;;;13.06;100.00;99715.02;1728786;80;21552;-54
2022/07/16 03:09:37;;;;;;;1.00;0.40;;;;;;;13.14;100.00;99715.46;1662433;84;21491;-52
2022/07/16 03:12:05;;;;;;;0.98;0.30;;;;;;;13.14;100.00;99715.46;1666292;83;21033;-53
2022/07/16 03:14:31;;;;;;;0.45;0.30;;;;;;;13.23;100.00;99717.63;1680896;82;21774;-52
2022/07/16 03:16:58;;;;;;;3.62;0.53;;;;;;;13.23;100.00;99717.63;1687938;83;21057;-52
2022/07/16 03:19:25;;;;;;;1.10;0.50;;;;;;;13.30;100.00;99722.17;1680374;82;21081;-51
2022/07/16 03:21:51;;;;;;;2.35;0.60;;;;;;;13.31;100.00;99715.80;1680618;84;21057;-52
2022/07/16 03:24:18;;;;;;;2.65;0.50;;;;;;;13.34;100.00;99718.34;1685970;83;21096;-51
2022/07/16 03:26:44;;;;;;;2.85;0.50;;;;;;;13.37;100.00;99718.61;1682143;83;21502;-52
2022/07/16 03:29:11;;;;;;;4.92;0.40;;;;;;;13.40;100.00;99713.91;1675849;83;21105;-53
2022/07/16 03:31:37;;;;;;;1.42;0.40;;;;;;;13.45;100.00;99721.24;1681603;83;21103;-52
2022/07/16 03:34:04;;;;;;;3.95;0.40;;;;;;;13.50;100.00;99727.27;1683565;83;21085;-51
2022/07/16 03:36:30;;;;;;;4.10;0.40;;;;;;;13.55;100.00;99730.55;1687116;83;21085;-52
2022/07/16 03:39:05;;;;;;;1.10;0.40;;;;;;;13.59;100.00;99728.54;1672829;83;21269;-52
2022/07/16 03:41:34;;;;;;;3.50;0.80;;;;;;;13.61;100.00;99731.52;1730503;80;21383;-51
2022/07/16 03:44:03;;;;;;;0.42;0.42;;;;;;;13.67;100.00;99726.23;1728459;80;21085;-52
2022/07/16 03:46:29;;;;;;;0.40;0.40;;;;;;;13.73;100.00;99734.45;1726939;80;21060;-54
2022/07/16 03:48:57;;;;;;;2.95;0.40;;;;;;;13.82;100.00;99732.53;1723551;80;21092;-54
2022/07/16 03:51:23;;;;;;;2.62;0.40;;;;;;;13.91;100.00;99735.53;1724518;80;21313;-55
2022/07/16 03:53:50;;;;;;;0.40;0.40;;;;;;;14.01;100.00;99737.20;1725504;80;20981;-51
2022/07/16 03:56:17;;;;;;;1.15;0.40;;;;;;;14.13;100.00;99742.30;1725290;80;21128;-53
2022/07/16 03:58:43;;;;;;;0.80;0.45;;;;;;;14.25;100.00;99737.48;1728375;80;20924;-55
2022/07/16 04:01:11;;;;;;;2.80;0.40;;;;;;;14.34;100.00;99740.95;1731256;80;21056;-51
2022/07/16 04:03:37;;;;;;;0.95;0.42;;;;;;;14.46;100.00;99738.83;1728432;80;21159;-52
2022/07/16 04:06:05;;;;;;;2.50;0.40;;;;;;;14.57;100.00;99734.09;1728454;81;21568;-52
2022/07/16 04:08:31;;;;;;;0.93;0.40;;;;;;;14.68;100.00;99735.14;1730319;81;21498;-52
2022/07/16 04:10:58;;;;;;;0.57;0.40;;;;;;;14.80;100.00;99736.16;1727241;80;21642;-52
2022/07/16 04:13:25;;;;;;;0.55;0.37;;;;;;;14.90;100.00;99732.36;1731274;80;21098;-52
2022/07/16 04:15:51;;;;;;;0.60;0.40;;;;;;;15.01;100.00;99737.46;1733058;81;21170;-55
2022/07/16 04:18:19;;;;;;;2.37;0.40;;;;;;;15.13;100.00;99743.43;1662853;83;21022;-52
2022/07/16 04:20:46;;;;;;;0.50;0.40;;;;;;;15.26;100.00;99739.88;1726427;81;21307;-52
2022/07/16 04:23:13;;;;;;;2.17;0.40;;;;;;;15.37;100.00;99738.19;1728514;81;21116;-53
2022/07/16 04:25:40;;;;;;;1.12;0.40;;;;;;;15.49;100.00;99744.59;1730292;80;21045;-52
2022/07/16 04:28:07;;;;;;;0.40;0.30;;;;;;;15.63;100.00;99749.13;1667403;83;21756;-51
2022/07/16 04:30:33;;;;;;;0.40;0.33;;;;;;;15.74;100.00;99747.88;1726307;80;22117;-52
2022/07/16 04:33:00;;;;;;;0.88;0.40;;;;;;;15.84;100.00;99747.63;1733583;81;21566;-52
2022/07/16 04:35:26;;;;;;;1.15;0.50;;;;;;;15.94;100.00;99746.50;1723656;81;21368;-55
2022/07/16 04:37:52;;;;;;;0.40;0.30;;;;;;;16.03;100.00;99744.00;1726363;81;21108;-51
2022/07/16 04:40:19;;;;;;;0.95;0.50;;;;;;;16.12;100.00;99740.64;1728422;81;21617;-51
2022/07/16 04:42:46;;;;;;;14.60;1.70;;;;;;;16.20;100.00;99749.11;1730335;80;21058;-52
2022/07/16 04:45:12;;;;;;;9.68;0.95;;;;;;;16.27;100.00;99746.33;1731264;81;21077;-54
2022/07/16 04:47:41;;;;;;;6.30;1.12;;;;;;;16.36;100.00;99742.08;1670635;83;21077;-57
2022/07/16 04:50:08;;;;;;;0.75;0.50;;;;;;;16.44;100.00;99742.88;1740463;80;21030;-55
2022/07/16 04:52:35;;;;;;;0.62;0.30;;;;;;;16.52;100.00;99747.27;1739078;82;21852;-54
2022/07/16 04:55:02;;;;;;;0.78;0.30;;;;;;;16.61;100.00;99746.14;1740946;81;20922;-55
2022/07/16 05:00:32;;;;;;;1.07;0.40;;;;;;;16.84;100.00;99737.64;1789272;78;28018;-55
2022/07/16 05:02:59;;;;;;;1.05;0.50;;;;;;;16.90;100.00;99744.50;1768530;79;21041;-55
2022/07/16 05:05:29;;;;;;;0.82;0.60;;;;;;;16.97;100.00;99742.56;1772866;79;21228;-54
2022/07/16 05:07:56;;;;;;;2.52;0.40;;;;;;;17.03;100.00;99742.09;1771073;79;20930;-54
2022/07/16 05:10:22;;;;;;;0.62;0.55;;;;;;;17.09;100.00;99738.08;1778682;79;21934;-54
2022/07/16 05:12:49;;;;;;;0.70;0.30;;;;;;;17.15;100.00;99743.04;1775106;79;20914;-54
2022/07/16 05:15:15;;;;;;;1.00;0.30;;;;;;;17.22;100.00;99742.95;1774701;79;20920;-54
2022/07/16 05:17:42;;;;;;;0.65;0.33;;;;;;;17.31;100.00;99735.45;1777372;79;21045;-56
2022/07/16 05:20:09;;;;;;;0.45;0.30;;;;;;;17.42;100.00;99744.16;1773632;79;21476;-54
2022/07/16 05:22:35;;;;;;;0.75;0.40;;;;;;;17.51;100.00;99742.59;1774808;79;20895;-56
2022/07/16 05:25:03;;;;;;;0.82;0.40;;;;;;;17.56;100.00;99741.23;1771962;79;20875;-53
2022/07/16 05:27:30;;;;;;;0.45;0.40;;;;;;;17.61;100.00;99743.09;1745446;79;21768;-55
2022/07/16 05:29:56;;;;;;;0.75;0.30;;;;;;;17.67;100.00;99739.96;1770797;79;22426;-54
2022/07/16 05:32:22;;;;;;;0.80;0.30;;;;;;;17.73;100.00;99741.33;1768552;80;21015;-54
2022/07/16 05:34:49;;;;;;;1.22;0.30;;;;;;;17.78;100.00;99739.97;1768483;79;21082;-55
2022/07/16 05:37:15;;;;;;;0.68;0.30;;;;;;;17.84;100.00;99741.86;1774764;79;21026;-55
2022/07/16 05:39:42;;;;;;;0.50;0.30;;;;;;;17.90;100.00;99754.98;1774539;79;21487;-55
2022/07/16 05:42:08;;;;;;;2.62;0.40;;;;;;;17.96;100.00;99752.64;1773083;79;22104;-54
2022/07/16 05:44:34;;;;;;;0.65;0.40;;;;;;;18.00;100.00;99747.83;1772155;79;21045;-54
2022/07/16 05:47:01;;;;;;;0.90;0.40;;;;;;;18.05;100.00;99754.64;1775758;79;21765;-54
2022/07/16 05:49:28;;;;;;;1.22;0.42;;;;;;;18.11;100.00;99762.35;1770585;79;21064;-54
2022/07/16 05:51:54;;;;;;;0.62;0.40;;;;;;;18.18;100.00;99758.64;1775046;79;21485;-54
2022/07/16 05:54:20;;;;;;;0.90;0.50;;;;;;;18.23;100.00;99765.06;1780166;79;20941;-56
2022/07/16 05:56:47;;;;;;;1.27;0.50;;;;;;;18.26;100.00;99755.30;1766790;79;21018;-54
2022/07/16 05:59:15;;;;;;;0.80;0.47;;;;;;;18.25;100.00;99754.92;1749166;80;21006;-56
2022/07/16 06:01:41;;;;;;;0.40;0.30;;;;;;;18.21;100.00;99750.20;1734245;80;21046;-54
2022/07/16 06:04:09;;;;;;;1.20;0.30;;;;;;;18.19;100.00;99751.34;1738556;80;21084;-54
2022/07/16 06:06:36;;;;;;;0.55;0.40;;;;;;;18.20;100.00;99749.86;1735527;80;21603;-55
2022/07/16 06:09:02;;;;;;;0.50;0.40;;;;;;;18.22;100.00;99754.66;1697094;82;21465;-55
2022/07/16 06:11:29;;;;;;;0.68;0.30;;;;;;;18.24;100.00;99751.82;1730443;80;21074;-54
2022/07/16 06:13:56;;;;;;;0.50;0.30;;;;;;;18.26;100.00;99748.48;1729809;80;21120;-55
2022/07/16 06:16:23;;;;;;;1.00;0.37;;;;;;;18.31;100.00;99747.61;1731606;80;21422;-56
2022/07/16 06:18:49;;;;;;;1.92;0.30;;;;;;;18.33;100.00;99746.51;1731833;80;21741;-56
2022/07/16 06:21:16;;;;;;;0.65;0.40;;;;;;;18.35;100.00;99747.27;1732483;80;21492;-55
2022/07/16 06:23:42;;;;;;;1.10;0.30;;;;;;;18.41;100.00;99752.70;1735547;80;21046;-53
2022/07/16 06:26:09;;;;;;;4.95;1.15;;;;;;;18.45;100.00;99748.75;1736422;80;21477;-57
2022/07/16 06:28:36;;;;;;;0.62;0.30;;;;;;;18.49;100.00;99752.95;1728694;80;21132;-55
2022/07/16 06:31:02;;;;;;;0.60;0.37;;;;;;;18.53;100.00;99753.09;1731166;80;21152;-54
2022/07/16 06:33:29;;;;;;;1.87;0.30;;;;;;;18.58;100.00;99752.23;1731777;80;22208;-57
2022/07/16 06:35:56;;;;;;;0.40;0.40;;;;;;;18.63;100.00;99750.00;1732631;80;21444;-55
2022/07/16 06:38:22;;;;;;;1.40;0.40;;;;;;;18.67;100.00;99746.05;1732212;80;20931;-56
2022/07/16 06:40:48;;;;;;;0.62;0.30;;;;;;;18.72;100.00;99750.61;1696779;82;21347;-55
2022/07/16 06:43:15;;;;;;;0.42;0.25;;;;;;;18.78;100.00;99753.35;1734299;80;21086;-54
2022/07/16 06:45:43;;;;;;;0.30;0.30;;;;;;;18.84;100.00;99752.34;1733658;80;22123;-54
2022/07/16 06:48:10;;;;;;;1.20;0.30;;;;;;;18.93;100.00;99753.94;1732090;80;21141;-56
2022/07/16 06:50:36;;;;;;;0.42;0.30;;;;;;;19.02;100.00;99751.33;1731791;80;21102;-55
2022/07/16 06:53:03;;;;;;;1.10;0.30;;;;;;;19.09;100.00;99758.00;1731910;80;21058;-54
2022/07/16 06:55:29;;;;;;;0.42;0.30;;;;;;;19.17;100.00;99754.12;1730785;80;21205;-54
2022/07/16 06:57:56;;;;;;;2.65;0.30;;;;;;;19.24;100.00;99758.08;1728742;80;21467;-54
2022/07/16 07:00:22;;;;;;;1.02;0.47;;;;;;;19.31;100.00;99758.95;1700591;82;21394;-54
2022/07/16 07:02:49;;;;;;;1.60;0.20;;;;;;;19.38;100.00;99761.03;1738590;80;21050;-55
2022/07/16 07:05:15;;;;;;;2.45;0.40;;;;;;;19.47;100.00;99757.55;1742938;80;21192;-55
2022/07/16 07:07:42;;;;;;;0.30;0.30;;;;;;;19.56;100.00;99757.27;1701353;82;21594;-57
2022/07/16 07:10:09;;;;;;;0.82;0.30;;;;;;;19.67;100.00;99757.20;1708622;82;21415;-57
2022/07/16 07:12:36;;;;;;;0.80;0.23;;;;;;;19.74;100.00;99758.40;1691322;83;21100;-56
2022/07/16 07:15:05;;;;;;;0.35;0.20;;;;;;;19.78;100.00;99757.16;1689471;83;21105;-57
2022/07/16 07:17:31;;;;;;;3.30;0.20;;;;;;;19.82;100.00;99755.88;1694360;82;21105;-54
2022/07/16 07:19:58;;;;;;;1.40;0.30;;;;;;;19.85;100.00;99750.16;1692892;82;21133;-59
2022/07/16 07:22:24;;;;;;;2.83;0.20;;;;;;;19.91;100.00;99754.21;1695339;82;21611;-56
2022/07/16 07:24:51;;;;;;;0.60;0.30;;;;;;;19.95;100.00;99751.59;1693227;83;21058;-58
2022/07/16 07:27:18;;;;;;;2.25;0.30;;;;;;;20.00;100.00;99749.31;1696833;83;22288;-55
2022/07/16 07:29:45;;;;;;;0.35;0.23;;;;;;;20.02;100.00;99748.69;1700979;83;20976;-56
2022/07/16 07:32:13;;;;;;;0.40;0.20;;;;;;;20.07;100.00;99749.17;1698359;82;21045;-58
2022/07/16 07:34:39;;;;;;;2.83;0.30;;;;;;;20.12;100.00;99747.39;1698229;82;21062;-55
2022/07/16 07:37:06;;;;;;;0.33;0.28;;;;;;;20.19;100.00;99742.61;1698501;83;21499;-59
2022/07/16 07:39:32;;;;;;;0.37;0.20;;;;;;;20.32;100.00;99744.64;1697391;82;21117;-59
2022/07/16 07:41:58;;;;;;;2.58;0.30;;;;;;;20.46;100.00;99738.47;1698886;83;21089;-54
2022/07/16 07:44:25;;;;;;;0.50;0.30;;;;;;;20.62;100.00;99737.46;1695519;82;21145;-54
2022/07/16 07:46:52;;;;;;;0.60;0.30;;;;;;;20.76;100.00;99732.97;1699637;82;21386;-59
2022/07/16 09:02:38;;;;;;;0.85;0.20;;;;;;;20.90;100.00;99734.47;1527241;83;975115;-57
2022/07/16 09:05:07;;;;;;;1.37;0.20;;;;;;;20.90;100.00;99734.47;1540552;83;977842;-58
2022/07/16 09:07:33;;;;;;;0.28;0.20;;;;;;;21.96;100.00;99705.77;1690329;82;21788;-57
2022/07/16 09:10:00;;;;;;;0.40;0.20;;;;;;;22.01;100.00;99704.37;1690456;83;21886;-55
2022/07/16 09:12:42;;;;;;;0.17;0.17;;;;;;;22.07;100.00;99702.41;1692361;83;21154;-56
2022/07/16 09:15:32;;;;;;;0.30;0.20;;;;;;;22.10;100.00;99702.63;1691529;83;21119;-56
2022/07/16 09:18:18;;;;;;;0.23;0.15;;;;;;;22.13;100.00;99694.94;1689619;82;21548;-57
2022/07/16 09:20:48;;;;;;;1.75;0.20;;;;;;;22.23;100.00;99693.05;1691109;83;21157;-54
2022/07/16 09:23:26;;;;;;;0.50;0.20;;;;;;;22.37;100.00;99694.97;1690373;82;21540;-56
2022/07/16 09:25:59;;;;;;;0.50;0.20;;;;;;;22.52;100.00;99694.31;1657792;84;21170;-57
2022/07/16 09:28:46;;;;;;;0.68;0.23;;;;;;;22.68;100.00;99687.30;1697237;82;21995;-56
2022/07/16 09:31:34;;;;;;;0.75;0.20;;;;;;;22.84;100.00;99690.27;1698095;82;21085;-56
2022/07/16 09:34:05;;;;;;;0.40;0.20;;;;;;;22.99;100.00;99691.47;1701122;83;21089;-58
2022/07/16 09:36:32;;;;;;;0.50;0.20;;;;;;;23.09;100.00;99699.14;1696462;83;21064;-56
2022/07/16 09:38:58;;;;;;;0.60;0.20;;;;;;;23.11;100.00;99698.48;1698277;82;22234;-59
2022/07/16 09:41:24;;;;;;;1.42;0.28;;;;;;;23.07;100.00;99692.07;1698538;82;21128;-59
2022/07/16 09:43:51;;;;;;;0.35;0.20;;;;;;;22.99;100.00;99687.36;1699789;82;21040;-56
2022/07/16 09:46:22;;;;;;;0.75;0.20;;;;;;;22.90;100.00;99688.28;1698587;82;21101;-56
2022/07/16 09:48:50;;;;;;;2.08;0.20;;;;;;;22.82;100.00;99693.67;1694843;82;21101;-56
2022/07/16 09:51:29;;;;;;;0.50;0.20;;;;;;;22.70;100.00;99687.52;1693473;82;21154;-58
2022/07/16 09:53:56;;;;;;;0.30;0.28;;;;;;;22.61;100.00;99689.29;1698414;82;21061;-56
2022/07/16 09:56:25;;;;;;;0.47;0.20;;;;;;;22.58;100.00;99688.21;1697399;82;21481;-57
2022/07/16 09:58:55;;;;;;;1.05;0.20;;;;;;;22.60;100.00;99682.08;1694110;82;21573;-59
2022/07/16 10:01:22;;;;;;;0.30;0.10;;;;;;;22.67;100.00;99674.59;1658707;84;21077;-61
2022/07/16 10:03:49;;;;;;;1.47;0.10;;;;;;;22.77;100.00;99676.31;1714795;80;21534;-56
2022/07/16 10:06:18;;;;;;;1.82;0.20;;;;;;;22.90;100.00;99678.17;1731183;80;21097;-58
2022/07/16 10:08:45;;;;;;;0.65;0.20;;;;;;;23.04;100.00;99674.05;1729349;80;21406;-57
2022/07/16 10:11:12;;;;;;;0.20;0.20;;;;;;;23.17;100.00;99673.14;1733786;80;21022;-56
2022/07/16 10:13:44;;;;;;;1.32;0.20;;;;;;;23.30;100.00;99675.02;1731044;80;21045;-56
2022/07/16 10:16:11;;;;;;;0.28;0.20;;;;;;;23.37;100.00;99669.75;1698887;82;21110;-61
2022/07/16 10:18:46;;;;;;;1.67;0.28;;;;;;;23.34;100.00;99665.42;1732489;80;21065;-57
2022/07/16 10:21:19;;;;;;;1.27;0.30;;;;;;;23.32;100.00;99669.34;1737642;80;21510;-57
2022/07/16 10:23:52;;;;;;;0.20;0.20;;;;;;;23.28;100.00;99667.44;1697655;82;21065;-57
2022/07/16 10:26:21;;;;;;;1.47;0.17;;;;;;;23.24;100.00;99661.88;1731792;80;21078;-57
2022/07/16 10:28:58;;;;;;;0.40;0.20;;;;;;;23.20;100.00;99661.00;1734683;80;21079;-57
2022/07/16 10:31:39;;;;;;;0.20;0.20;;;;;;;23.15;100.00;99657.84;1735954;80;21568;-57
2022/07/16 10:34:35;;;;;;;0.40;0.20;;;;;;;23.13;100.00;99655.78;1728289;80;21163;-59
2022/07/16 10:37:02;;;;;;;0.40;0.20;;;;;;;23.16;100.00;99647.21;1699113;82;21142;-56
2022/07/16 10:39:28;;;;;;;0.25;0.20;;;;;;;23.22;100.00;99652.93;1730052;80;21030;-57
2022/07/16 10:42:03;;;;;;;1.45;0.20;;;;;;;23.33;100.00;99643.60;1725048;80;21906;-56
2022/07/16 10:44:46;;;;;;;0.60;0.20;;;;;;;23.44;100.00;99657.10;1737871;80;20939;-55
2022/07/16 10:47:14;;;;;;;2.33;0.20;;;;;;;23.49;100.00;99652.02;1734938;80;20994;-58
2022/07/16 10:49:40;;;;;;;0.40;0.30;;;;;;;23.42;100.00;99652.78;1732342;80;20943;-55
2022/07/16 10:52:14;;;;;;;0.50;0.20;;;;;;;23.33;100.00;99654.08;1733058;80;20923;-57
2022/07/16 10:54:52;;;;;;;0.60;0.20;;;;;;;23.26;100.00;99666.72;1738866;80;22324;-56
2022/07/16 10:57:21;;;;;;;0.30;0.20;;;;;;;23.18;100.00;99658.91;1741503;80;20972;-56
2022/07/16 10:59:47;;;;;;;0.98;0.20;;;;;;;23.16;100.00;99649.45;1736196;80;20954;-56
2022/07/16 11:02:16;;;;;;;0.95;0.20;;;;;;;23.20;100.00;99659.11;1632266;80;974639;-55
2022/07/16 11:04:47;;;;;;;0.50;0.20;;;;;;;23.31;100.00;99655.25;1735451;80;20955;-56
2022/07/16 11:07:17;;;;;;;0.25;0.20;;;;;;;23.32;100.00;99659.22;1701781;82;20891;-59
2022/07/16 11:09:47;;;;;;;1.98;0.20;;;;;;;23.32;100.00;99652.86;1732329;80;21623;-60
2022/07/16 11:12:22;;;;;;;0.55;0.20;;;;;;;23.30;100.00;99653.05;1725026;80;21046;-57
2022/07/16 11:14:51;;;;;;;0.30;0.20;;;;;;;23.33;100.00;99654.08;1698473;82;21582;-56
2022/07/16 11:17:22;;;;;;;0.85;0.20;;;;;;;23.44;100.00;99645.25;1736353;80;21058;-54
2022/07/16 11:19:51;;;;;;;0.23;0.20;;;;;;;23.51;100.00;99647.74;1730598;80;21043;-56
2022/07/16 11:22:21;;;;;;;0.30;0.20;;;;;;;23.55;100.00;99644.53;1698167;82;21025;-59
2022/07/16 11:24:53;;;;;;;1.57;0.20;;;;;;;23.61;100.00;99638.39;1730844;80;21536;-59
2022/07/16 11:27:36;;;;;;;0.72;0.20;;;;;;;23.68;100.00;99636.73;1729956;80;21059;-56
2022/07/16 11:30:05;;;;;;;0.55;0.30;;;;;;;23.74;100.00;99634.70;1735102;80;21136;-60
2022/07/16 11:32:32;;;;;;;0.80;0.28;;;;;;;23.75;100.00;99639.69;1691939;82;21520;-55
2022/07/16 11:35:06;;;;;;;0.72;0.40;;;;;;;23.75;100.00;99639.18;1734273;80;21043;-57
2022/07/16 13:23:38;;;;;;;0.40;0.17;;;;;;;23.73;100.00;99629.39;1628169;80;975193;-57
2022/07/16 13:26:07;;;;;;;1.77;0.20;;;;;;;23.73;100.00;99629.39;1735256;80;20931;-60
2022/07/16 13:28:34;;;;;;;0.28;0.20;;;;;;;24.01;100.00;99581.96;1732351;80;20922;-58
2022/07/16 13:31:00;;;;;;;0.42;0.28;;;;;;;23.99;100.00;99582.13;1734573;80;20870;-58
2022/07/16 13:47:04;;;;;;;0.55;0.40;;;;;;;24.01;100.00;99586.95;1568659;80;975467;-58
2022/07/16 13:49:30;;;;;;;0.90;0.30;;;;;;;24.01;100.00;99586.95;1734307;80;21450;-60
2022/07/16 13:51:57;;;;;;;0.82;0.30;;;;;;;24.06;100.00;99584.59;1734402;80;21394;-57
